createdAt,value
2018-09-20T00:01:52.404Z,86.07
2018-09-20T00:04:21.653Z,86.08
2018-09-20T00:06:50.943Z,85.51
2018-09-20T00:09:20.254Z,85.61
2018-09-20T00:11:49.542Z,86.26
2018-09-20T00:14:18.791Z,87.22
2018-09-20T00:16:48.075Z,86.74
2018-09-20T00:19:17.339Z,86.61
2018-09-20T00:21:46.677Z,86.07
2018-09-20T00:24:15.938Z,86.94
2018-09-20T00:26:45.198Z,86.74
2018-09-20T00:29:14.479Z,86.25
2018-09-20T00:31:43.779Z,87.00
2018-09-20T00:34:13.093Z,88.07
2018-09-20T00:36:42.391Z,88.06
2018-09-20T00:39:13.559Z,87.70
2018-09-20T00:41:43.270Z,87.82
2018-09-20T00:44:13.014Z,87.84
2018-09-20T00:46:42.330Z,87.39
2018-09-20T00:49:11.563Z,86.92
2018-09-20T00:51:40.831Z,86.87
2018-09-20T00:54:10.058Z,87.32
2018-09-20T00:56:39.324Z,87.58
2018-09-20T00:59:08.567Z,87.67
2018-09-20T01:01:37.863Z,88.56
2018-09-20T01:04:07.155Z,88.64
2018-09-20T01:06:36.435Z,88.29
2018-09-20T01:09:09.238Z,87.86
2018-09-20T01:11:38.766Z,88.98
2018-09-20T01:14:08.037Z,89.72
2018-09-20T01:16:37.344Z,89.50
2018-09-20T01:19:06.666Z,89.21
2018-09-20T01:21:36.052Z,89.92
2018-09-20T01:24:05.335Z,89.97
2018-09-20T01:26:34.618Z,89.68
2018-09-20T01:29:03.937Z,90.13
2018-09-20T01:31:33.182Z,89.59
2018-09-20T01:34:02.458Z,89.75
2018-09-20T01:36:31.731Z,90.10
2018-09-20T01:39:01.072Z,89.80
2018-09-20T01:41:30.352Z,90.42
2018-09-20T01:43:59.665Z,90.29
2018-09-20T01:46:28.971Z,90.80
2018-09-20T01:48:58.254Z,91.33
2018-09-20T01:51:27.752Z,90.94
2018-09-20T01:53:57.052Z,91.00
2018-09-20T01:56:26.339Z,92.22
2018-09-20T01:58:55.645Z,91.90
2018-09-20T02:01:24.915Z,92.05
2018-09-20T02:03:54.251Z,92.72
2018-09-20T02:06:23.550Z,93.34
2018-09-20T02:08:52.857Z,93.03
2018-09-20T02:11:22.135Z,92.88
2018-09-20T02:13:51.514Z,93.47
2018-09-20T02:16:20.867Z,93.95
2018-09-20T02:18:50.278Z,92.99
2018-09-20T02:21:19.686Z,93.55
2018-09-20T02:23:49.170Z,93.91
2018-09-20T02:26:18.498Z,95.03
2018-09-20T02:28:47.879Z,94.85
2018-09-20T02:31:17.201Z,94.82
2018-09-20T02:33:46.565Z,94.66
2018-09-20T02:36:15.956Z,94.99
2018-09-20T02:38:45.265Z,95.46
2018-09-20T02:41:14.500Z,95.88
2018-09-20T02:43:43.767Z,95.68
2018-09-20T02:46:13.005Z,95.93
2018-09-20T02:48:42.257Z,96.56
2018-09-20T02:51:11.532Z,96.51
2018-09-20T02:53:40.798Z,95.77
2018-09-20T02:56:10.033Z,96.67
2018-09-20T02:58:39.299Z,97.07
2018-09-20T03:01:08.554Z,97.04
2018-09-20T03:03:37.775Z,96.70
2018-09-20T03:06:07.027Z,97.27
2018-09-20T03:08:36.275Z,97.62
2018-09-20T03:11:05.515Z,96.99
2018-09-20T03:13:34.862Z,97.88
2018-09-20T03:16:04.194Z,98.13
2018-09-20T03:18:33.482Z,98.53
2018-09-20T03:21:02.767Z,99.26
2018-09-20T03:23:32.004Z,99.10
2018-09-20T03:26:01.276Z,99.12
2018-09-20T03:28:30.544Z,99.62
2018-09-20T03:30:59.986Z,98.68
2018-09-20T03:33:29.215Z,99.61
2018-09-20T03:35:58.494Z,100.00
2018-09-20T03:38:27.765Z,99.35
2018-09-20T03:40:57.079Z,99.88
2018-09-20T03:43:26.440Z,100.00
2018-09-20T03:45:55.744Z,100.00
2018-09-20T03:48:25.010Z,100.00
2018-09-20T03:50:54.274Z,99.74
2018-09-20T03:53:23.500Z,100.00
2018-09-20T03:55:53.026Z,100.00
2018-09-20T03:58:22.526Z,100.00
2018-09-20T04:00:51.769Z,100.00
2018-09-20T04:03:21.029Z,100.00
2018-09-20T04:05:50.321Z,99.73
2018-09-20T04:08:19.607Z,100.00
2018-09-20T04:10:48.931Z,100.00
2018-09-20T04:13:18.198Z,100.00
2018-09-20T04:15:47.537Z,100.00
2018-09-20T04:18:16.846Z,100.00
2018-09-20T04:20:46.155Z,100.00
2018-09-20T04:23:15.494Z,100.00
2018-09-20T04:25:44.754Z,100.00
2018-09-20T04:28:14.023Z,100.00
2018-09-20T04:30:43.280Z,100.00
2018-09-20T04:33:12.519Z,100.00
2018-09-20T04:35:41.771Z,100.00
2018-09-20T04:38:11.042Z,100.00
2018-09-20T04:40:40.442Z,100.00
2018-09-20T04:43:09.802Z,100.00
2018-09-20T04:45:39.159Z,100.00
2018-09-20T04:48:08.514Z,100.00
2018-09-20T04:50:37.863Z,100.00
2018-09-20T04:53:07.314Z,100.00
2018-09-20T04:55:37.747Z,100.00
2018-09-20T04:58:07.146Z,100.00
2018-09-20T05:00:36.466Z,100.00
2018-09-20T05:03:05.905Z,100.00
2018-09-20T05:05:35.420Z,100.00
2018-09-20T05:08:04.914Z,100.00
2018-09-20T05:10:34.225Z,100.00
2018-09-20T05:13:03.750Z,100.00
2018-09-20T05:15:33.274Z,100.00
2018-09-20T05:18:02.953Z,100.00
2018-09-20T05:20:32.891Z,100.00
2018-09-20T05:23:02.411Z,100.00
2018-09-20T05:25:31.846Z,100.00
2018-09-20T05:28:01.157Z,100.00
2018-09-20T05:30:30.649Z,100.00
2018-09-20T05:33:00.168Z,100.00
2018-09-20T05:35:29.711Z,100.00
2018-09-20T05:37:59.038Z,100.00
2018-09-20T05:40:28.379Z,99.74
2018-09-20T05:42:57.693Z,99.00
2018-09-20T05:45:26.996Z,98.52
2018-09-20T05:47:56.354Z,98.10
2018-09-20T05:50:25.742Z,97.71
2018-09-20T05:52:55.121Z,97.84
2018-09-20T05:55:24.727Z,97.21
2018-09-20T05:57:54.052Z,96.80
2018-09-20T06:00:23.354Z,96.53
2018-09-20T06:02:52.665Z,95.91
2018-09-20T06:05:22.007Z,95.25
2018-09-20T06:07:51.632Z,94.69
2018-09-20T06:10:20.976Z,93.96
2018-09-20T06:12:50.359Z,92.87
2018-09-20T06:15:19.755Z,93.70
2018-09-20T06:17:49.220Z,92.72
2018-09-20T06:20:18.639Z,91.48
2018-09-20T06:22:48.741Z,90.36
2018-09-20T06:25:18.226Z,89.29
2018-09-20T06:27:47.800Z,88.43
2018-09-20T06:30:17.303Z,87.75
2018-09-20T06:32:46.911Z,86.16
2018-09-20T06:35:16.501Z,85.42
2018-09-20T06:37:45.823Z,84.56
2018-09-20T06:40:15.160Z,83.83
2018-09-20T06:42:44.591Z,83.09
2018-09-20T06:45:14.529Z,81.85
2018-09-20T06:47:44.046Z,81.22
2018-09-20T06:50:13.427Z,80.53
2018-09-20T06:52:42.694Z,79.62
2018-09-20T06:55:12.144Z,79.19
2018-09-20T06:57:41.394Z,78.62
2018-09-20T07:00:10.535Z,77.51
2018-09-20T07:02:39.898Z,77.23
2018-09-20T07:05:09.457Z,77.09
2018-09-20T07:07:38.805Z,75.94
2018-09-20T07:10:08.203Z,75.24
2018-09-20T07:12:37.467Z,75.32
2018-09-20T07:15:07.523Z,74.84
2018-09-20T07:17:37.027Z,74.92
2018-09-20T07:20:06.460Z,75.22
2018-09-20T07:22:35.755Z,74.83
2018-09-20T07:25:05.103Z,73.81
2018-09-20T07:27:34.370Z,73.98
2018-09-20T07:30:03.791Z,73.89
2018-09-20T07:32:33.251Z,72.57
2018-09-20T07:35:03.232Z,71.90
2018-09-20T07:37:32.530Z,72.13
2018-09-20T07:40:01.925Z,71.98
2018-09-20T07:42:31.233Z,72.71
2018-09-20T07:45:00.650Z,71.59
2018-09-20T07:47:29.966Z,71.26
2018-09-20T07:49:59.313Z,70.89
2018-09-20T07:52:28.658Z,70.22
2018-09-20T07:54:57.999Z,69.40
2018-09-20T07:57:29.525Z,68.78
2018-09-20T08:00:01.317Z,68.50
2018-09-20T08:02:30.722Z,68.28
2018-09-20T08:05:00.207Z,67.59
2018-09-20T08:07:29.874Z,67.08
2018-09-20T08:09:59.274Z,66.58
2018-09-20T08:12:28.618Z,65.80
2018-09-20T08:14:57.955Z,65.05
2018-09-20T08:17:27.408Z,64.71
2018-09-20T08:19:56.750Z,64.26
2018-09-20T08:22:26.245Z,63.13
2018-09-20T08:24:55.683Z,63.98
2018-09-20T08:27:25.158Z,63.69
2018-09-20T08:29:54.462Z,64.02
2018-09-20T08:32:23.849Z,63.11
2018-09-20T08:34:53.329Z,62.38
2018-09-20T08:37:22.682Z,62.01
2018-09-20T08:39:51.947Z,61.75
2018-09-20T08:42:21.372Z,61.70
2018-09-20T08:44:50.554Z,61.31
2018-09-20T08:47:20.059Z,61.33
2018-09-20T08:49:49.540Z,60.45
2018-09-20T08:52:18.965Z,60.05
2018-09-20T08:54:48.370Z,59.35
2018-09-20T08:57:17.731Z,59.10
2018-09-20T08:59:47.310Z,59.09
2018-09-20T09:02:16.739Z,59.71
2018-09-20T09:04:45.907Z,59.29
2018-09-20T09:07:15.211Z,59.11
2018-09-20T09:09:44.550Z,58.94
2018-09-20T09:12:13.972Z,57.42
2018-09-20T09:14:43.262Z,58.05
2018-09-20T09:17:12.577Z,57.76
2018-09-20T09:19:41.914Z,56.86
2018-09-20T09:22:11.171Z,56.75
2018-09-20T09:24:40.437Z,57.18
2018-09-20T09:27:09.780Z,56.69
2018-09-20T09:29:39.058Z,56.01
2018-09-20T09:32:08.447Z,56.09
2018-09-20T09:34:37.823Z,55.73
2018-09-20T09:37:07.187Z,56.80
2018-09-20T09:39:36.678Z,56.46
2018-09-20T09:42:06.100Z,56.35
2018-09-20T09:44:35.691Z,55.40
2018-09-20T09:47:05.267Z,54.72
2018-09-20T09:49:34.678Z,55.89
2018-09-20T09:52:04.097Z,56.45
2018-09-20T09:54:33.697Z,54.83
2018-09-20T09:57:02.913Z,54.49
2018-09-20T09:59:32.234Z,54.18
2018-09-20T10:02:01.530Z,54.22
2018-09-20T10:04:31.004Z,54.28
2018-09-20T10:07:00.490Z,52.67
2018-09-20T10:09:29.872Z,53.88
2018-09-20T10:11:59.711Z,53.49
2018-09-20T10:14:29.121Z,54.25
2018-09-20T10:16:58.447Z,52.51
2018-09-20T10:19:27.878Z,52.64
2018-09-20T10:21:57.299Z,53.44
2018-09-20T10:24:26.698Z,53.14
2018-09-20T10:26:56.049Z,51.88
2018-09-20T10:29:26.488Z,53.08
2018-09-20T10:31:55.861Z,51.46
2018-09-20T10:34:25.208Z,51.26
2018-09-20T10:36:54.574Z,50.79
2018-09-20T10:39:24.079Z,52.36
2018-09-20T10:41:53.503Z,52.82
2018-09-20T10:44:22.844Z,53.36
2018-09-20T10:46:52.202Z,53.45
2018-09-20T10:49:21.690Z,52.61
2018-09-20T10:51:51.663Z,52.21
2018-09-20T10:54:21.214Z,53.21
2018-09-20T10:56:50.866Z,52.67
2018-09-20T10:59:20.334Z,53.82
2018-09-20T11:01:49.806Z,53.05
2018-09-20T11:04:19.864Z,53.13
2018-09-20T11:06:49.526Z,52.06
2018-09-20T11:09:19.094Z,52.37
2018-09-20T11:11:48.709Z,51.39
2018-09-20T11:14:18.201Z,50.19
2018-09-20T11:16:47.587Z,50.49
2018-09-20T11:19:16.907Z,51.89
2018-09-20T11:21:46.237Z,53.00
2018-09-20T11:24:15.694Z,52.94
2018-09-20T11:26:45.025Z,51.75
2018-09-20T11:29:14.431Z,52.38
2018-09-20T11:31:44.104Z,52.43
2018-09-20T11:34:13.547Z,52.91
2018-09-20T11:36:43.067Z,53.13
2018-09-20T11:39:13.770Z,52.76
2018-09-20T11:41:43.131Z,53.40
2018-09-20T11:44:12.498Z,52.39
2018-09-20T11:46:41.880Z,52.57
2018-09-20T11:49:11.727Z,51.58
2018-09-20T11:51:41.122Z,50.15
2018-09-20T11:54:10.441Z,48.76
2018-09-20T11:56:39.717Z,49.53
2018-09-20T11:59:09.054Z,49.35
2018-09-20T12:01:38.339Z,47.57
2018-09-20T12:04:07.732Z,47.37
2018-09-20T12:06:37.095Z,47.09
2018-09-20T12:09:07.775Z,47.32
2018-09-20T12:11:37.157Z,46.21
2018-09-20T12:14:06.499Z,47.48
2018-09-20T12:16:35.828Z,47.63
2018-09-20T12:19:05.250Z,46.53
2018-09-20T12:21:34.613Z,47.49
2018-09-20T12:24:03.907Z,47.67
2018-09-20T12:26:33.272Z,46.73
2018-09-20T12:29:02.683Z,46.78
2018-09-20T12:31:31.947Z,47.84
2018-09-20T12:34:01.302Z,47.64
2018-09-20T12:36:30.541Z,46.69
2018-09-20T12:39:00.058Z,45.76
2018-09-20T12:41:29.395Z,45.28
2018-09-20T12:43:58.766Z,45.20
2018-09-20T12:46:29.141Z,46.95
2018-09-20T12:48:58.457Z,46.84
2018-09-20T12:51:27.799Z,47.79
2018-09-20T12:53:57.126Z,47.63
2018-09-20T12:56:26.516Z,46.06
2018-09-20T12:58:55.878Z,45.21
2018-09-20T13:01:25.173Z,45.67
2018-09-20T13:03:54.555Z,45.69
2018-09-20T13:06:23.858Z,45.24
2018-09-20T13:08:53.178Z,45.39
2018-09-20T13:11:22.642Z,46.40
2018-09-20T13:13:52.032Z,45.64
2018-09-20T13:16:21.315Z,44.74
2018-09-20T13:18:50.609Z,43.47
2018-09-20T13:21:20.019Z,44.20
2018-09-20T13:23:49.373Z,43.20
2018-09-20T13:26:18.779Z,42.72
2018-09-20T13:28:48.303Z,43.31
2018-09-20T13:31:17.957Z,42.69
2018-09-20T13:33:47.586Z,42.66
2018-09-20T13:36:17.004Z,42.55
2018-09-20T13:38:46.465Z,42.39
2018-09-20T13:41:15.968Z,42.66
2018-09-20T13:43:46.054Z,43.03
2018-09-20T13:46:15.344Z,43.31
2018-09-20T13:48:44.691Z,43.30
2018-09-20T13:51:13.959Z,43.36
2018-09-20T13:53:43.182Z,42.71
2018-09-20T13:56:12.530Z,43.47
2018-09-20T13:58:45.872Z,44.10
2018-09-20T14:01:15.256Z,44.01
2018-09-20T14:03:44.591Z,42.92
2018-09-20T14:06:14.067Z,41.66
2018-09-20T14:08:43.359Z,41.92
2018-09-20T14:11:12.848Z,40.38
2018-09-20T14:13:42.109Z,40.03
2018-09-20T14:16:11.444Z,39.66
2018-09-20T14:18:40.633Z,38.98
2018-09-20T14:21:09.919Z,38.65
2018-09-20T14:23:39.165Z,38.74
2018-09-20T14:26:08.498Z,38.58
2018-09-20T14:28:37.803Z,38.42
2018-09-20T14:31:07.052Z,38.81
2018-09-20T14:33:36.319Z,38.79
2018-09-20T14:36:05.675Z,38.12
2018-09-20T14:38:35.242Z,37.30
2018-09-20T14:41:04.607Z,37.71
2018-09-20T14:43:33.862Z,37.72
2018-09-20T14:46:03.144Z,38.00
2018-09-20T14:48:32.500Z,37.87
2018-09-20T14:51:01.834Z,37.92
2018-09-20T14:53:31.115Z,38.15
2018-09-20T14:56:00.505Z,38.79
2018-09-20T14:58:34.028Z,37.96
2018-09-20T15:01:04.692Z,38.09
2018-09-20T15:03:34.182Z,38.27
2018-09-20T15:06:03.653Z,37.95
2018-09-20T15:08:34.310Z,38.31
2018-09-20T15:11:03.686Z,37.77
2018-09-20T15:14:03.480Z,38.75
2018-09-20T15:16:32.959Z,38.32
2018-09-20T15:19:02.378Z,38.23
2018-09-20T15:21:31.804Z,38.82
2018-09-20T15:24:01.379Z,38.39
2018-09-20T15:26:30.867Z,39.18
2018-09-20T15:29:00.279Z,39.07
2018-09-20T15:31:29.615Z,39.68
2018-09-20T15:33:59.006Z,39.67
2018-09-20T15:36:28.329Z,39.60
2018-09-20T15:38:57.672Z,38.38
2018-09-20T15:41:26.934Z,39.55
2018-09-20T15:43:56.237Z,39.23
2018-09-20T15:46:25.580Z,38.25
2018-09-20T15:48:54.956Z,38.58
2018-09-20T15:51:24.324Z,39.27
2018-09-20T15:53:53.651Z,39.67
2018-09-20T15:56:23.073Z,39.57
2018-09-20T15:58:52.535Z,40.06
2018-09-20T16:01:22.194Z,39.15
2018-09-20T16:03:54.299Z,39.86
2018-09-20T16:06:49.602Z,41.01
2018-09-20T16:09:43.545Z,41.55
2018-09-20T16:12:24.193Z,41.83
2018-09-20T16:14:59.126Z,40.95
2018-09-20T16:17:29.886Z,41.69
2018-09-20T16:20:00.939Z,41.79
2018-09-20T16:22:33.063Z,42.15
2018-09-20T16:25:08.219Z,42.78
2018-09-20T16:27:50.411Z,43.59
2018-09-20T16:30:36.685Z,44.24
2018-09-20T16:33:29.074Z,43.80
2018-09-20T16:36:19.593Z,43.28
2018-09-20T16:38:58.847Z,42.95
2018-09-20T16:41:36.505Z,43.04
2018-09-20T16:44:10.282Z,42.83
2018-09-20T16:46:54.435Z,43.49
2018-09-20T16:49:39.305Z,43.38
2018-09-20T16:52:10.568Z,43.78
2018-09-20T16:54:42.405Z,44.12
2018-09-20T16:57:27.646Z,44.76
2018-09-20T17:00:01.814Z,44.58
2018-09-20T17:02:38.597Z,45.64
2018-09-20T17:05:10.349Z,45.56
2018-09-20T17:07:46.097Z,45.17
2018-09-20T17:10:22.753Z,45.92
2018-09-20T17:12:55.031Z,46.33
2018-09-20T17:15:28.967Z,47.57
2018-09-20T17:18:01.396Z,47.29
2018-09-20T17:20:30.986Z,47.60
2018-09-20T17:23:00.455Z,47.86
2018-09-20T17:25:29.945Z,48.24
2018-09-20T17:28:00.064Z,48.91
2018-09-20T17:30:29.652Z,49.50
2018-09-20T17:32:59.198Z,49.42
2018-09-20T17:35:29.095Z,49.37
2018-09-20T17:38:00.303Z,49.56
2018-09-20T17:40:30.519Z,49.63
2018-09-20T17:43:02.376Z,49.90
2018-09-20T17:45:31.891Z,50.58
2018-09-20T17:48:01.244Z,51.29
2018-09-20T17:50:30.861Z,51.64
2018-09-20T17:53:00.910Z,53.71
2018-09-20T17:55:31.020Z,54.47
2018-09-20T17:58:01.691Z,55.11
2018-09-20T18:00:38.479Z,55.57
2018-09-20T18:03:09.455Z,56.72
2018-09-20T18:05:39.003Z,57.22
2018-09-20T18:08:08.617Z,57.55
2018-09-20T18:10:38.267Z,57.81
2018-09-20T18:13:08.362Z,57.63
2018-09-20T18:15:39.777Z,58.50
2018-09-20T18:18:09.933Z,59.25
2018-09-20T18:20:39.548Z,59.40
2018-09-20T18:23:09.804Z,59.71
2018-09-20T18:25:39.547Z,59.81
2018-09-20T18:28:09.369Z,59.78
2018-09-20T18:30:39.296Z,59.74
2018-09-20T18:33:08.826Z,60.14
2018-09-20T18:35:38.586Z,60.20
2018-09-20T18:38:08.777Z,60.23
2018-09-20T18:40:38.566Z,61.35
2018-09-20T18:43:08.319Z,61.30
2018-09-20T18:45:38.030Z,61.89
2018-09-20T18:48:07.764Z,62.17
2018-09-20T18:50:37.424Z,62.25
2018-09-20T18:53:06.991Z,62.72
2018-09-20T18:55:36.644Z,63.27
2018-09-20T18:58:06.118Z,62.41
2018-09-20T19:00:35.766Z,63.14
2018-09-20T19:03:05.378Z,63.32
2018-09-20T19:05:34.901Z,64.22
2018-09-20T19:08:04.592Z,64.32
2018-09-20T19:10:34.470Z,64.06
2018-09-20T19:13:04.120Z,63.70
2018-09-20T19:15:33.887Z,63.95
2018-09-20T19:18:03.594Z,64.07
2018-09-20T19:20:33.443Z,63.96
2018-09-20T19:23:03.266Z,63.08
2018-09-20T19:25:32.993Z,62.82
2018-09-20T19:28:02.502Z,62.64
2018-09-20T19:30:32.065Z,64.73
2018-09-20T19:33:01.555Z,64.42
2018-09-20T19:35:31.426Z,64.58
2018-09-20T19:38:00.923Z,64.82
2018-09-20T19:40:30.879Z,65.40
2018-09-20T19:43:00.470Z,65.47
2018-09-20T19:45:30.304Z,65.78
2018-09-20T19:48:00.450Z,65.12
2018-09-20T19:50:30.189Z,65.15
2018-09-20T19:53:00.380Z,65.07
2018-09-20T19:55:30.204Z,66.02
2018-09-20T19:58:00.310Z,66.94
2018-09-20T20:00:30.053Z,66.62
2018-09-20T20:02:59.891Z,67.24
2018-09-20T20:05:29.504Z,67.75
2018-09-20T20:08:00.202Z,67.13
2018-09-20T20:10:29.685Z,67.26
2018-09-20T20:13:00.866Z,67.28
2018-09-20T20:15:31.202Z,67.71
2018-09-20T20:18:01.389Z,67.82
2018-09-20T20:20:30.897Z,68.28
2018-09-20T20:23:00.682Z,68.19
2018-09-20T20:25:30.094Z,68.55
2018-09-20T20:27:59.786Z,68.49
2018-09-20T20:30:29.270Z,69.85
2018-09-20T20:32:58.604Z,69.73
2018-09-20T20:35:28.321Z,69.34
2018-09-20T20:37:57.816Z,70.34
2018-09-20T20:40:27.197Z,70.36
2018-09-20T20:42:56.625Z,70.43
2018-09-20T20:45:25.936Z,70.88
2018-09-20T20:47:55.328Z,70.64
2018-09-20T20:50:24.792Z,71.24
2018-09-20T20:52:54.283Z,71.29
2018-09-20T20:55:23.566Z,72.10
2018-09-20T20:57:52.939Z,72.28
2018-09-20T21:00:22.316Z,72.57
2018-09-20T21:02:51.671Z,73.01
2018-09-20T21:05:21.175Z,72.88
2018-09-20T21:07:50.710Z,73.65
2018-09-20T21:10:20.082Z,74.00
2018-09-20T21:12:49.455Z,73.64
2018-09-20T21:15:18.827Z,74.01
2018-09-20T21:17:48.252Z,74.37
2018-09-20T21:20:17.633Z,74.01
2018-09-20T21:22:47.012Z,73.81
2018-09-20T21:25:16.389Z,73.19
2018-09-20T21:27:45.792Z,72.71
2018-09-20T21:30:15.070Z,73.24
2018-09-20T21:32:44.443Z,73.52
2018-09-20T21:35:13.867Z,73.24
2018-09-20T21:37:43.184Z,73.65
2018-09-20T21:40:12.550Z,72.48
2018-09-20T21:42:41.951Z,72.05
2018-09-20T21:45:11.358Z,72.18
2018-09-20T21:47:40.794Z,72.63
2018-09-20T21:50:10.353Z,73.42
2018-09-20T21:52:39.745Z,73.68
2018-09-20T21:55:09.538Z,74.05
2018-09-20T21:57:38.964Z,73.72
2018-09-20T22:00:08.791Z,72.76
2018-09-20T22:02:43.438Z,72.04
2018-09-20T22:05:12.819Z,71.76
2018-09-20T22:07:42.130Z,71.30
2018-09-20T22:10:11.861Z,71.90
2018-09-20T22:12:41.194Z,72.71
2018-09-20T22:15:15.789Z,73.51
2018-09-20T22:17:45.111Z,74.10
2018-09-20T22:20:14.414Z,74.94
2018-09-20T22:22:43.742Z,74.79
2018-09-20T22:25:13.263Z,74.75
2018-09-20T22:27:42.650Z,74.69
2018-09-20T22:30:12.045Z,74.69
2018-09-20T22:32:41.329Z,75.09
2018-09-20T22:35:10.897Z,76.11
2018-09-20T22:37:40.260Z,75.98
2018-09-20T22:40:09.629Z,76.52
2018-09-20T22:42:38.988Z,76.46
2018-09-20T22:45:08.302Z,75.68
2018-09-20T22:47:37.635Z,76.42
2018-09-20T22:50:06.929Z,76.34
2018-09-20T22:52:36.237Z,75.88
2018-09-20T22:55:05.646Z,76.62
2018-09-20T22:57:34.985Z,76.50
2018-09-20T23:00:04.374Z,75.45
2018-09-20T23:02:33.657Z,75.58
2018-09-20T23:05:02.950Z,76.58
2018-09-20T23:07:32.281Z,76.71
2018-09-20T23:10:01.646Z,76.25
2018-09-20T23:12:30.950Z,77.90
2018-09-20T23:15:00.242Z,78.25
2018-09-20T23:17:29.585Z,78.80
2018-09-20T23:19:58.854Z,79.03
2018-09-20T23:22:28.184Z,79.58
2018-09-20T23:24:57.465Z,79.97
2018-09-20T23:27:26.847Z,80.46
2018-09-20T23:29:56.170Z,80.84
2018-09-20T23:32:25.404Z,81.81
2018-09-20T23:34:54.958Z,81.34
2018-09-20T23:37:24.285Z,81.68
2018-09-20T23:39:53.576Z,81.65
2018-09-20T23:42:22.870Z,82.42
2018-09-20T23:44:52.164Z,82.40
2018-09-20T23:47:21.483Z,82.38
2018-09-20T23:49:50.950Z,82.44
2018-09-20T23:52:20.324Z,83.42
2018-09-20T23:54:49.722Z,83.03
2018-09-20T23:57:19.174Z,82.95
2018-09-20T23:59:48.454Z,82.56
